createdAt,value
2018-09-06T00:00:48.524Z,101069.88
2018-09-06T00:01:52.833Z,101064.67
2018-09-06T00:02:57.171Z,101066.41
2018-09-06T00:04:01.374Z,101058.36
2018-09-06T00:05:05.636Z,101066.34
2018-09-06T00:06:09.885Z,101057.77
2018-09-06T00:07:14.298Z,101054.61
2018-09-06T00:08:18.510Z,101050.05
2018-09-06T00:09:22.805Z,101048.36
2018-09-06T00:10:27.119Z,101046.34
2018-09-06T00:11:31.358Z,101042.29
2018-09-06T00:12:35.675Z,101042.67
2018-09-06T00:13:39.871Z,101046.73
2018-09-06T00:14:44.138Z,101042.72
2018-09-06T00:15:48.423Z,101040.41
2018-09-06T00:16:52.763Z,101042.10
2018-09-06T00:17:56.943Z,101044.17
2018-09-06T00:19:01.119Z,101049.58
2018-09-06T00:20:05.315Z,101046.54
2018-09-06T00:21:09.503Z,101046.92
2018-09-06T00:22:15.526Z,101043.70
2018-09-06T00:23:19.765Z,101043.58
2018-09-06T00:24:23.955Z,101037.67
2018-09-06T00:25:28.152Z,101040.03
2018-09-06T00:26:32.376Z,101038.34
2018-09-06T00:27:36.576Z,101037.20
2018-09-06T00:28:40.775Z,101039.06
2018-09-06T00:29:44.983Z,101039.58
2018-09-06T00:30:49.168Z,101037.89
2018-09-06T00:31:53.529Z,101042.48
2018-09-06T00:32:57.723Z,101032.19
2018-09-06T00:34:01.906Z,101032.87
2018-09-06T00:35:06.112Z,101025.30
2018-09-06T00:36:10.306Z,101029.36
2018-09-06T00:37:14.507Z,101027.03
2018-09-06T00:38:18.718Z,101023.48
2018-09-06T00:39:23.031Z,101021.80
2018-09-06T00:40:27.319Z,101022.52
2018-09-06T00:41:31.667Z,101020.83
2018-09-06T00:42:35.863Z,101021.34
2018-09-06T00:43:40.132Z,101016.45
2018-09-06T00:44:44.340Z,101020.20
2018-09-06T00:45:48.653Z,101018.84
2018-09-06T00:46:52.867Z,101022.23
2018-09-06T00:47:57.073Z,101017.84
2018-09-06T00:49:01.341Z,101012.14
2018-09-06T00:50:09.758Z,101018.56
2018-09-06T00:51:14.001Z,101013.66
2018-09-06T00:52:18.177Z,101015.52
2018-09-06T00:53:22.598Z,101003.06
2018-09-06T00:54:26.782Z,101005.77
2018-09-06T00:55:30.966Z,101006.91
2018-09-06T00:56:35.157Z,101011.30
2018-09-06T00:57:39.362Z,100993.74
2018-09-06T00:58:43.585Z,100999.98
2018-09-06T00:59:47.824Z,100997.59
2018-09-06T01:00:52.129Z,100998.64
2018-09-06T01:01:56.550Z,100994.38
2018-09-06T01:03:00.790Z,100997.28
2018-09-06T01:04:05.364Z,100988.85
2018-09-06T01:05:09.711Z,100992.77
2018-09-06T01:06:13.904Z,100986.86
2018-09-06T01:07:18.156Z,100993.28
2018-09-06T01:08:22.324Z,100993.28
2018-09-06T01:09:26.521Z,100988.89
2018-09-06T01:10:30.749Z,100989.41
2018-09-06T01:11:34.959Z,100991.30
2018-09-06T01:12:39.202Z,100978.81
2018-09-06T01:13:43.382Z,100980.16
2018-09-06T01:14:47.542Z,100980.67
2018-09-06T01:15:51.742Z,100979.83
2018-09-06T01:16:55.946Z,100980.67
2018-09-06T01:18:00.164Z,100974.93
2018-09-06T01:19:04.365Z,100980.33
2018-09-06T01:20:08.550Z,100975.77
2018-09-06T01:21:12.968Z,100973.58
2018-09-06T01:22:17.184Z,100967.03
2018-09-06T01:23:21.391Z,100969.73
2018-09-06T01:24:25.647Z,100971.92
2018-09-06T01:26:02.302Z,100973.45
2018-09-06T01:27:06.559Z,100974.30
2018-09-06T01:28:11.126Z,100962.86
2018-09-06T01:29:15.318Z,100970.12
2018-09-06T01:30:19.493Z,100962.52
2018-09-06T01:31:23.991Z,100965.22
2018-09-06T01:32:28.374Z,100972.48
2018-09-06T01:33:32.599Z,100970.12
2018-09-06T01:34:36.844Z,100974.67
2018-09-06T01:35:47.230Z,100974.16
2018-09-06T01:36:51.443Z,100970.62
2018-09-06T01:37:55.634Z,100974.16
2018-09-06T01:38:59.864Z,100976.86
2018-09-06T01:40:04.290Z,100979.56
2018-09-06T01:41:08.491Z,100986.11
2018-09-06T01:42:13.799Z,100987.80
2018-09-06T01:43:18.103Z,100995.05
2018-09-06T01:44:22.427Z,100999.44
2018-09-06T01:45:26.648Z,101006.06
2018-09-06T01:46:30.843Z,101012.61
2018-09-06T01:47:35.145Z,101015.52
2018-09-06T01:48:39.722Z,101016.99
2018-09-06T01:49:43.988Z,101018.34
2018-09-06T01:50:48.336Z,101021.30
2018-09-06T01:51:52.651Z,101028.22
2018-09-06T01:52:56.854Z,101034.25
2018-09-06T01:54:01.604Z,101039.15
2018-09-06T01:55:05.853Z,101036.11
2018-09-06T01:56:10.047Z,101035.09
2018-09-06T01:57:14.488Z,101032.91
2018-09-06T01:58:18.654Z,101034.42
2018-09-06T01:59:23.204Z,101037.50
2018-09-06T02:00:27.358Z,101043.66
2018-09-06T02:01:31.932Z,101039.34
2018-09-06T02:02:36.170Z,101048.13
2018-09-06T02:03:40.329Z,101047.82
2018-09-06T02:04:44.529Z,101043.09
2018-09-06T02:05:48.780Z,101046.00
2018-09-06T02:06:53.089Z,101045.67
2018-09-06T02:07:57.459Z,101035.41
2018-09-06T02:09:01.654Z,101043.89
2018-09-06T02:10:06.013Z,101038.56
2018-09-06T02:11:10.217Z,101042.95
2018-09-06T02:12:14.418Z,101057.13
2018-09-06T02:13:18.616Z,101049.39
2018-09-06T02:14:23.629Z,101056.85
2018-09-06T02:15:28.309Z,101056.17
2018-09-06T02:16:32.750Z,101057.89
2018-09-06T02:17:36.989Z,101057.05
2018-09-06T02:18:41.168Z,101053.51
2018-09-06T02:19:45.377Z,101053.20
2018-09-06T02:20:49.657Z,101051.52
2018-09-06T02:21:53.895Z,101051.19
2018-09-06T02:22:58.133Z,101047.50
2018-09-06T02:24:02.411Z,101048.21
2018-09-06T02:25:06.641Z,101048.24
2018-09-06T02:26:10.921Z,101051.31
2018-09-06T02:27:15.128Z,101043.25
2018-09-06T02:28:19.858Z,101043.61
2018-09-06T02:29:24.846Z,101048.88
2018-09-06T02:30:29.107Z,101039.30
2018-09-06T02:31:33.336Z,101037.80
2018-09-06T02:32:37.544Z,101038.98
2018-09-06T02:33:41.764Z,101034.30
2018-09-06T02:34:45.945Z,101035.00
2018-09-06T02:35:50.182Z,101040.56
2018-09-06T02:36:54.393Z,101045.62
2018-09-06T02:37:58.605Z,101040.92
2018-09-06T02:39:02.950Z,101043.28
2018-09-06T02:40:07.850Z,101040.79
2018-09-06T02:41:12.035Z,101041.30
2018-09-06T02:42:16.307Z,101038.59
2018-09-06T02:43:20.514Z,101043.79
2018-09-06T02:44:24.704Z,101041.09
2018-09-06T02:45:28.870Z,101038.40
2018-09-06T02:46:33.171Z,101032.70
2018-09-06T02:47:41.562Z,101029.50
2018-09-06T02:48:45.986Z,101025.62
2018-09-06T02:49:55.650Z,101026.13
2018-09-06T02:51:05.240Z,101021.94
2018-09-06T02:52:09.459Z,101018.40
2018-09-06T02:53:14.011Z,101020.76
2018-09-06T02:54:18.487Z,101018.06
2018-09-06T02:55:23.006Z,101021.30
2018-09-06T02:56:27.189Z,101022.30
2018-09-06T02:57:31.927Z,101016.57
2018-09-06T02:58:36.252Z,101011.18
2018-09-06T02:59:40.521Z,101015.42
2018-09-06T03:00:44.729Z,101014.24
2018-09-06T03:01:48.890Z,101011.55
2018-09-06T03:02:53.210Z,101003.96
2018-09-06T03:03:57.429Z,100998.41
2018-09-06T03:05:01.665Z,101003.43
2018-09-06T03:06:06.183Z,101006.97
2018-09-06T03:07:10.354Z,101004.78
2018-09-06T03:08:14.589Z,101009.16
2018-09-06T03:09:20.246Z,101004.41
2018-09-06T03:10:24.805Z,101002.05
2018-09-06T03:11:34.399Z,100992.92
2018-09-06T03:12:38.631Z,100993.63
2018-09-06T03:13:42.856Z,100981.86
2018-09-06T03:14:47.197Z,100981.86
2018-09-06T03:15:51.520Z,100978.52
2018-09-06T03:16:55.831Z,100975.83
2018-09-06T03:18:00.288Z,100972.45
2018-09-06T03:19:04.565Z,100971.11
2018-09-06T03:20:09.046Z,100970.45
2018-09-06T03:21:13.393Z,100971.47
2018-09-06T03:22:17.601Z,100982.11
2018-09-06T03:23:21.847Z,100984.34
2018-09-06T03:24:26.111Z,100981.63
2018-09-06T03:25:30.322Z,100976.95
2018-09-06T03:26:34.581Z,100972.56
2018-09-06T03:27:38.747Z,100977.79
2018-09-06T03:28:43.104Z,100977.95
2018-09-06T03:29:47.265Z,100978.45
2018-09-06T03:30:51.554Z,100982.50
2018-09-06T03:31:55.733Z,100984.05
2018-09-06T03:32:59.920Z,100980.00
2018-09-06T03:34:04.274Z,100972.28
2018-09-06T03:35:08.470Z,100975.00
2018-09-06T03:36:12.835Z,100967.95
2018-09-06T03:37:17.229Z,100968.01
2018-09-06T03:38:21.411Z,100967.53
2018-09-06T03:39:25.606Z,100966.71
2018-09-06T03:40:29.866Z,100967.07
2018-09-06T03:41:34.105Z,100969.48
2018-09-06T03:42:38.374Z,100957.38
2018-09-06T03:43:42.795Z,100959.39
2018-09-06T03:44:46.983Z,100961.44
2018-09-06T03:45:51.152Z,100953.22
2018-09-06T03:46:55.568Z,100955.77
2018-09-06T03:48:00.527Z,100950.40
2018-09-06T03:49:04.675Z,100960.83
2018-09-06T03:50:09.001Z,100958.81
2018-09-06T03:51:13.216Z,100958.48
2018-09-06T03:52:17.434Z,100957.63
2018-09-06T03:53:21.622Z,100965.38
2018-09-06T03:54:26.055Z,100967.22
2018-09-06T03:55:30.296Z,100964.88
2018-09-06T03:56:34.622Z,100982.02
2018-09-06T03:57:38.986Z,100986.40
2018-09-06T03:58:43.209Z,100984.71
2018-09-06T03:59:47.514Z,100986.56
2018-09-06T04:00:51.703Z,100993.83
2018-09-06T04:01:55.879Z,100989.95
2018-09-06T04:03:00.127Z,101000.72
2018-09-06T04:04:04.299Z,101006.11
2018-09-06T04:05:08.502Z,101008.64
2018-09-06T04:06:12.738Z,101007.30
2018-09-06T04:07:16.952Z,101005.59
2018-09-06T04:08:21.197Z,101001.36
2018-09-06T04:09:25.453Z,101000.02
2018-09-06T04:10:29.635Z,101003.20
2018-09-06T04:11:33.819Z,101007.59
2018-09-06T04:12:37.994Z,101004.20
2018-09-06T04:13:42.364Z,101008.72
2018-09-06T04:14:46.572Z,101008.90
2018-09-06T04:15:50.791Z,101007.36
2018-09-06T04:16:54.987Z,101002.11
2018-09-06T04:17:59.294Z,100999.56
2018-09-06T04:19:03.530Z,100998.56
2018-09-06T04:20:07.966Z,101004.62
2018-09-06T04:21:12.174Z,101005.63
2018-09-06T04:22:16.364Z,101007.14
2018-09-06T04:23:20.555Z,101005.15
2018-09-06T04:24:24.838Z,101005.48
2018-09-06T04:25:29.136Z,101008.83
2018-09-06T04:26:33.415Z,101015.56
2018-09-06T04:27:37.755Z,101009.48
2018-09-06T04:28:41.967Z,101010.83
2018-09-06T04:29:46.382Z,101005.12
2018-09-06T04:30:50.618Z,101014.05
2018-09-06T04:31:54.798Z,101010.83
2018-09-06T04:32:59.032Z,101016.21
2018-09-06T04:34:03.416Z,101012.17
2018-09-06T04:35:07.670Z,101009.48
2018-09-06T04:36:11.963Z,101014.87
2018-09-06T04:37:16.100Z,101017.06
2018-09-06T04:38:20.259Z,101023.29
2018-09-06T04:39:24.456Z,101020.26
2018-09-06T04:40:28.666Z,101023.29
2018-09-06T04:41:32.891Z,101028.34
2018-09-06T04:42:37.166Z,101022.80
2018-09-06T04:43:41.414Z,101023.81
2018-09-06T04:44:45.517Z,101023.67
2018-09-06T04:45:49.766Z,101016.42
2018-09-06T04:46:53.947Z,101021.66
2018-09-06T04:47:58.135Z,101023.81
2018-09-06T04:49:02.788Z,101015.58
2018-09-06T04:50:06.963Z,101020.66
2018-09-06T04:51:11.599Z,101028.21
2018-09-06T04:52:15.792Z,101020.81
2018-09-06T04:53:19.973Z,101030.05
2018-09-06T04:54:24.166Z,101031.39
2018-09-06T04:55:29.036Z,101023.81
2018-09-06T04:56:33.270Z,101025.70
2018-09-06T04:57:37.776Z,101028.39
2018-09-06T04:58:42.163Z,101023.00
2018-09-06T04:59:46.881Z,101019.77
2018-09-06T05:00:51.145Z,101019.27
2018-09-06T05:01:55.404Z,101014.72
2018-09-06T05:02:59.553Z,101010.52
2018-09-06T05:04:03.844Z,101010.47
2018-09-06T05:05:07.970Z,101006.77
2018-09-06T05:06:12.138Z,101011.65
2018-09-06T05:07:16.378Z,101018.72
2018-09-06T05:08:20.578Z,101012.49
2018-09-06T05:09:24.864Z,101014.99
2018-09-06T05:10:29.104Z,101013.34
2018-09-06T05:11:33.767Z,101005.25
2018-09-06T05:12:38.367Z,101008.45
2018-09-06T05:13:43.038Z,101007.77
2018-09-06T05:14:47.531Z,101003.42
2018-09-06T05:15:51.994Z,101002.38
2018-09-06T05:16:56.187Z,101003.23
2018-09-06T05:18:00.426Z,100999.69
2018-09-06T05:19:05.015Z,100999.69
2018-09-06T05:20:09.292Z,100995.34
2018-09-06T05:21:13.856Z,100991.16
2018-09-06T05:22:18.101Z,100990.62
2018-09-06T05:23:22.595Z,100987.62
2018-09-06T05:24:27.177Z,100984.08
2018-09-06T05:25:31.694Z,100990.95
2018-09-06T05:26:35.905Z,100985.91
2018-09-06T05:27:40.141Z,100982.53
2018-09-06T05:28:44.956Z,100980.88
2018-09-06T05:29:49.694Z,100978.86
2018-09-06T05:30:54.420Z,100977.36
2018-09-06T05:31:58.938Z,100978.38
2018-09-06T05:33:03.154Z,100974.19
2018-09-06T05:34:07.883Z,100979.58
2018-09-06T05:35:12.164Z,100970.84
2018-09-06T05:36:16.420Z,100973.88
2018-09-06T05:37:21.119Z,100972.34
2018-09-06T05:38:25.987Z,100973.88
2018-09-06T05:39:30.948Z,100979.27
2018-09-06T05:40:35.422Z,100974.19
2018-09-06T05:41:40.588Z,100975.87
2018-09-06T05:42:45.325Z,100978.91
2018-09-06T05:43:49.813Z,100974.17
2018-09-06T05:44:54.042Z,100976.52
2018-09-06T05:45:58.454Z,100964.09
2018-09-06T05:47:03.102Z,100974.51
2018-09-06T05:48:07.842Z,100972.96
2018-09-06T05:49:12.523Z,100964.54
2018-09-06T05:50:16.775Z,100968.58
2018-09-06T05:51:21.388Z,100966.73
2018-09-06T05:52:25.615Z,100963.73
2018-09-06T05:53:29.871Z,100968.44
2018-09-06T05:54:34.168Z,100961.20
2018-09-06T05:55:38.768Z,100970.48
2018-09-06T05:56:42.996Z,100961.76
2018-09-06T05:57:47.730Z,100963.77
2018-09-06T05:58:52.367Z,100961.27
2018-09-06T05:59:56.827Z,100962.42
2018-09-06T06:01:00.992Z,100965.13
2018-09-06T06:02:05.195Z,100968.16
2018-09-06T06:03:09.367Z,100961.42
2018-09-06T06:04:13.535Z,100961.42
2018-09-06T06:05:18.102Z,100960.07
2018-09-06T06:06:22.864Z,100959.06
2018-09-06T06:07:41.192Z,100957.19
2018-09-06T06:08:47.278Z,100948.29
2018-09-06T06:09:51.449Z,100945.59
2018-09-06T06:10:55.658Z,100942.06
2018-09-06T06:12:00.260Z,100934.14
2018-09-06T06:13:04.843Z,100938.19
2018-09-06T06:14:09.235Z,100937.84
2018-09-06T06:15:13.837Z,100928.78
2018-09-06T06:16:18.338Z,100931.47
2018-09-06T06:17:22.815Z,100927.43
2018-09-06T06:18:27.307Z,100933.86
2018-09-06T06:19:31.606Z,100928.83
2018-09-06T06:20:35.878Z,100929.00
2018-09-06T06:21:40.182Z,100926.80
2018-09-06T06:22:44.432Z,100927.48
2018-09-06T06:23:48.940Z,100928.49
2018-09-06T06:24:53.668Z,100932.03
2018-09-06T06:25:58.228Z,100931.19
2018-09-06T06:27:02.824Z,100929.84
2018-09-06T06:28:07.747Z,100932.70
2018-09-06T06:29:12.025Z,100939.97
2018-09-06T06:30:16.243Z,100936.59
2018-09-06T06:31:20.510Z,100941.13
2018-09-06T06:32:25.564Z,100941.13
2018-09-06T06:33:29.771Z,100948.71
2018-09-06T06:34:33.974Z,100947.37
2018-09-06T06:35:38.313Z,100948.20
2018-09-06T06:36:43.139Z,100952.25
2018-09-06T06:37:47.335Z,100952.08
2018-09-06T06:38:51.576Z,100953.43
2018-09-06T06:39:55.831Z,100957.12
2018-09-06T06:40:59.962Z,100954.60
2018-09-06T06:42:04.226Z,100959.48
2018-09-06T06:43:08.423Z,100956.13
2018-09-06T06:44:12.817Z,100947.70
2018-09-06T06:45:17.075Z,100951.05
2018-09-06T06:46:21.261Z,100950.55
2018-09-06T06:47:26.035Z,100954.42
2018-09-06T06:48:30.223Z,100956.41
2018-09-06T06:49:34.486Z,100951.67
2018-09-06T06:50:38.780Z,100946.97
2018-09-06T06:51:43.016Z,100943.57
2018-09-06T06:52:47.232Z,100940.52
2018-09-06T06:53:51.560Z,100937.66
2018-09-06T06:54:55.760Z,100940.16
2018-09-06T06:56:00.237Z,100930.05
2018-09-06T06:57:04.600Z,100933.90
2018-09-06T06:58:08.907Z,100928.34
2018-09-06T06:59:13.063Z,100921.41
2018-09-06T07:00:17.926Z,100929.63
2018-09-06T07:01:22.147Z,100922.09
2018-09-06T07:02:26.306Z,100922.23
2018-09-06T07:03:30.508Z,100923.58
2018-09-06T07:04:34.723Z,100926.61
2018-09-06T07:05:39.325Z,100928.27
2018-09-06T07:06:43.882Z,100926.75
2018-09-06T07:07:48.457Z,100927.89
2018-09-06T07:08:52.664Z,100928.57
2018-09-06T07:09:56.971Z,100930.22
2018-09-06T07:11:01.176Z,100922.48
2018-09-06T07:12:05.346Z,100925.52
2018-09-06T07:13:10.002Z,100928.84
2018-09-06T07:14:14.330Z,100931.89
2018-09-06T07:15:18.546Z,100932.53
2018-09-06T07:16:22.780Z,100932.53
2018-09-06T07:17:26.974Z,100933.70
2018-09-06T07:18:31.751Z,100936.20
2018-09-06T07:19:35.962Z,100936.88
2018-09-06T07:20:40.172Z,100938.53
2018-09-06T07:21:44.412Z,100943.42
2018-09-06T07:22:48.612Z,100940.56
2018-09-06T07:23:52.810Z,100940.36
2018-09-06T07:24:57.108Z,100948.95
2018-09-06T07:26:07.932Z,100949.16
2018-09-06T07:27:12.153Z,100950.50
2018-09-06T07:28:16.371Z,100944.91
2018-09-06T07:29:20.511Z,100947.74
2018-09-06T07:30:24.730Z,100949.63
2018-09-06T07:31:28.874Z,100945.75
2018-09-06T07:32:33.063Z,100945.25
2018-09-06T07:33:37.278Z,100948.65
2018-09-06T07:34:41.486Z,100946.96
2018-09-06T07:35:45.715Z,100955.69
2018-09-06T07:36:49.858Z,100961.76
2018-09-06T07:37:54.103Z,100960.72
2018-09-06T07:38:58.456Z,100957.52
2018-09-06T07:40:02.777Z,100959.00
2018-09-06T07:41:07.033Z,100959.98
2018-09-06T07:42:11.192Z,100959.81
2018-09-06T07:43:15.451Z,100958.47
2018-09-06T07:44:19.729Z,100957.96
2018-09-06T07:45:23.893Z,100960.15
2018-09-06T07:46:28.549Z,100958.30
2018-09-06T07:47:33.425Z,100958.94
2018-09-06T07:48:37.824Z,100957.93
2018-09-06T07:49:41.994Z,100958.91
2018-09-06T07:50:46.216Z,100958.20
2018-09-06T07:51:50.662Z,100957.19
2018-09-06T07:52:54.925Z,100959.19
2018-09-06T07:53:59.672Z,100961.88
2018-09-06T07:55:03.891Z,100955.14
2018-09-06T07:56:08.777Z,100957.97
2018-09-06T07:57:12.953Z,100964.20
2018-09-06T07:58:17.191Z,100964.55
2018-09-06T07:59:21.399Z,100963.20
2018-09-06T08:00:25.596Z,100965.55
2018-09-06T08:01:29.852Z,100960.50
2018-09-06T08:02:34.056Z,100959.86
2018-09-06T08:03:38.302Z,100964.41
2018-09-06T08:04:42.575Z,100964.91
2018-09-06T08:05:46.782Z,100963.73
2018-09-06T08:06:51.343Z,100960.20
2018-09-06T08:07:55.766Z,100964.77
2018-09-06T08:08:59.999Z,100965.28
2018-09-06T08:10:04.622Z,100967.98
2018-09-06T08:11:08.833Z,100963.23
2018-09-06T08:12:13.196Z,100969.97
2018-09-06T08:13:17.363Z,100967.27
2018-09-06T08:14:21.543Z,100960.53
2018-09-06T08:15:25.993Z,100963.56
2018-09-06T08:16:30.275Z,100965.25
2018-09-06T08:17:34.918Z,100966.59
2018-09-06T08:18:40.198Z,100960.16
2018-09-06T08:19:44.369Z,100965.89
2018-09-06T08:20:48.728Z,100963.20
2018-09-06T08:21:52.951Z,100963.20
2018-09-06T08:22:57.131Z,100962.35
2018-09-06T08:24:01.466Z,100961.64
2018-09-06T08:25:05.716Z,100960.13
2018-09-06T08:26:09.946Z,100964.17
2018-09-06T08:27:14.215Z,100958.07
2018-09-06T08:28:18.392Z,100961.95
2018-09-06T08:29:22.727Z,100961.75
2018-09-06T08:30:27.325Z,100958.87
2018-09-06T08:31:31.636Z,100960.56
2018-09-06T08:32:35.823Z,100960.06
2018-09-06T08:33:40.063Z,100957.16
2018-09-06T08:34:44.243Z,100958.34
2018-09-06T08:35:48.444Z,100957.30
2018-09-06T08:36:52.836Z,100957.30
2018-09-06T08:37:57.039Z,100960.33
2018-09-06T08:39:01.264Z,100956.62
2018-09-06T08:40:05.509Z,100960.46
2018-09-06T08:41:09.759Z,100959.11
2018-09-06T08:42:13.948Z,100960.30
2018-09-06T08:43:18.163Z,100958.94
2018-09-06T08:44:22.421Z,100958.23
2018-09-06T08:45:26.757Z,100955.03
2018-09-06T08:46:31.001Z,100956.38
2018-09-06T08:47:35.357Z,100955.53
2018-09-06T08:48:39.751Z,100957.22
2018-09-06T08:49:43.966Z,100952.67
2018-09-06T08:50:49.178Z,100959.72
2018-09-06T08:51:53.367Z,100952.47
2018-09-06T08:52:58.097Z,100951.95
2018-09-06T08:54:05.377Z,100955.16
2018-09-06T08:55:09.684Z,100959.21
2018-09-06T08:56:14.111Z,100952.13
2018-09-06T08:57:18.324Z,100956.88
2018-09-06T08:58:22.559Z,100952.50
2018-09-06T08:59:26.796Z,100957.59
2018-09-06T09:00:31.093Z,100951.86
2018-09-06T09:01:41.754Z,100950.69
2018-09-06T09:02:46.153Z,100955.27
2018-09-06T09:03:50.256Z,100954.94
2018-09-06T09:04:54.495Z,100956.28
2018-09-06T09:05:58.766Z,100963.73
2018-09-06T09:07:02.989Z,100955.17
2018-09-06T09:08:07.203Z,100956.69
2018-09-06T09:09:15.091Z,100953.98
2018-09-06T09:10:21.691Z,100952.17
2018-09-06T09:11:25.987Z,100949.34
2018-09-06T09:12:30.347Z,100952.75
2018-09-06T09:13:34.722Z,100948.53
2018-09-06T09:14:38.992Z,100948.39
2018-09-06T09:15:43.322Z,100946.91
2018-09-06T09:16:47.584Z,100951.13
2018-09-06T09:17:51.840Z,100948.97
2018-09-06T09:18:56.114Z,100958.57
2018-09-06T09:20:00.581Z,100955.87
2018-09-06T09:21:05.021Z,100955.73
2018-09-06T09:22:09.242Z,100955.41
2018-09-06T09:23:13.431Z,100955.06
2018-09-06T09:24:17.623Z,100945.83
2018-09-06T09:25:21.940Z,100953.21
2018-09-06T09:26:26.130Z,100954.56
2018-09-06T09:27:30.375Z,100954.25
2018-09-06T09:28:34.812Z,100955.27
2018-09-06T09:29:39.025Z,100960.15
2018-09-06T09:30:43.353Z,100954.25
2018-09-06T09:31:47.549Z,100956.28
2018-09-06T09:32:51.767Z,100954.28
2018-09-06T09:33:56.097Z,100960.52
2018-09-06T09:35:00.470Z,100957.66
2018-09-06T09:36:05.001Z,100953.61
2018-09-06T09:37:09.135Z,100956.64
2018-09-06T09:38:13.343Z,100955.80
2018-09-06T09:39:17.564Z,100952.94
2018-09-06T09:40:21.744Z,100954.28
2018-09-06T09:41:25.962Z,100957.28
2018-09-06T09:42:30.207Z,100958.63
2018-09-06T09:43:34.421Z,100955.94
2018-09-06T09:44:38.675Z,100952.94
2018-09-06T09:45:42.872Z,100955.63
2018-09-06T09:47:50.463Z,100954.92
2018-09-06T09:49:58.045Z,100949.53
2018-09-06T09:51:02.355Z,100947.17
2018-09-06T09:52:06.867Z,100951.22
2018-09-06T09:53:11.059Z,100953.92
2018-09-06T09:54:15.255Z,100953.58
2018-09-06T09:55:19.453Z,100953.92
2018-09-06T09:56:23.954Z,100954.25
2018-09-06T09:57:28.206Z,100953.72
2018-09-06T09:58:32.356Z,100950.52
2018-09-06T09:59:36.552Z,100955.91
2018-09-06T10:00:42.040Z,100952.37
2018-09-06T10:01:51.450Z,100953.21
2018-09-06T10:03:01.070Z,100955.60
2018-09-06T10:04:10.406Z,100951.56
2018-09-06T10:05:20.031Z,100948.86
2018-09-06T10:06:29.450Z,100952.91
2018-09-06T10:07:38.875Z,100956.11
2018-09-06T10:08:48.642Z,100950.55
2018-09-06T10:09:52.819Z,100954.42
2018-09-06T10:10:57.112Z,100946.84
2018-09-06T10:12:01.389Z,100952.73
2018-09-06T10:13:05.567Z,100951.72
2018-09-06T10:14:09.797Z,100953.58
2018-09-06T10:15:14.029Z,100955.27
2018-09-06T10:16:18.281Z,100956.95
2018-09-06T10:17:22.671Z,100955.60
2018-09-06T10:18:26.873Z,100953.41
2018-09-06T10:19:31.093Z,100954.92
2018-09-06T10:20:35.390Z,100953.78
2018-09-06T10:21:39.595Z,100952.97
2018-09-06T10:22:43.832Z,100951.28
2018-09-06T10:23:48.038Z,100956.37
2018-09-06T10:24:52.463Z,100951.98
2018-09-06T10:25:56.739Z,100951.34
2018-09-06T10:27:00.909Z,100949.28
2018-09-06T10:28:05.131Z,100943.92
2018-09-06T10:29:09.470Z,100943.28
2018-09-06T10:30:13.698Z,100944.63
2018-09-06T10:31:17.842Z,100938.59
2018-09-06T10:32:22.030Z,100937.75
2018-09-06T10:33:26.233Z,100938.63
2018-09-06T10:34:30.563Z,100937.64
2018-09-06T10:35:34.803Z,100938.31
2018-09-06T10:36:38.954Z,100933.96
2018-09-06T10:37:43.174Z,100935.81
2018-09-06T10:38:47.353Z,100941.20
2018-09-06T10:39:51.577Z,100935.31
2018-09-06T10:40:55.810Z,100936.66
2018-09-06T10:41:59.966Z,100936.80
2018-09-06T10:43:04.183Z,100932.55
2018-09-06T10:44:08.394Z,100928.01
2018-09-06T10:45:12.876Z,100931.55
2018-09-06T10:46:17.203Z,100931.55
2018-09-06T10:47:21.401Z,100929.19
2018-09-06T10:48:25.678Z,100933.23
2018-09-06T10:49:29.891Z,100922.11
2018-09-06T10:50:34.096Z,100919.42
2018-09-06T10:51:38.298Z,100922.45
2018-09-06T10:52:42.703Z,100919.56
2018-09-06T10:53:46.919Z,100915.85
2018-09-06T10:54:51.093Z,100917.70
2018-09-06T10:55:55.594Z,100920.09
2018-09-06T10:57:00.173Z,100917.40
2018-09-06T10:58:04.781Z,100913.49
2018-09-06T10:59:09.021Z,100916.67
2018-09-06T11:00:13.318Z,100918.02
2018-09-06T11:01:21.363Z,100918.86
2018-09-06T11:02:26.062Z,100921.72
2018-09-06T11:03:30.491Z,100922.73
2018-09-06T11:04:34.741Z,100923.77
2018-09-06T11:05:39.399Z,100921.08
2018-09-06T11:06:43.671Z,100926.47
2018-09-06T11:07:47.906Z,100925.92
2018-09-06T11:08:52.061Z,100928.13
2018-09-06T11:09:56.273Z,100922.42
2018-09-06T11:11:00.625Z,100922.73
2018-09-06T11:12:04.969Z,100922.90
2018-09-06T11:13:09.365Z,100928.73
2018-09-06T11:14:13.568Z,100920.00
2018-09-06T11:15:17.701Z,100922.84
2018-09-06T11:16:22.109Z,100925.37
2018-09-06T11:17:26.574Z,100927.36
2018-09-06T11:18:30.769Z,100920.45
2018-09-06T11:19:34.999Z,100921.26
2018-09-06T11:20:39.143Z,100922.58
2018-09-06T11:21:43.592Z,100922.20
2018-09-06T11:22:47.874Z,100911.22
2018-09-06T11:23:52.010Z,100910.98
2018-09-06T11:24:56.219Z,100916.34
2018-09-06T11:26:00.416Z,100919.50
2018-09-06T11:27:04.639Z,100919.44
2018-09-06T11:28:08.906Z,100917.41
2018-09-06T11:29:13.185Z,100916.83
2018-09-06T11:30:17.376Z,100912.61
2018-09-06T11:31:27.880Z,100919.11
2018-09-06T11:32:32.089Z,100915.36
2018-09-06T11:33:36.628Z,100912.13
2018-09-06T11:34:40.850Z,100911.24
2018-09-06T11:35:45.047Z,100911.20
2018-09-06T11:36:49.476Z,100910.66
2018-09-06T11:37:53.653Z,100908.21
2018-09-06T11:38:58.224Z,100907.66
2018-09-06T11:40:02.535Z,100909.00
2018-09-06T11:41:06.826Z,100912.33
2018-09-06T11:42:11.268Z,100917.86
2018-09-06T11:43:15.488Z,100915.67
2018-09-06T11:44:19.667Z,100921.40
2018-09-06T11:45:24.012Z,100916.34
2018-09-06T11:46:28.163Z,100915.95
2018-09-06T11:47:32.779Z,100915.23
2018-09-06T11:48:37.364Z,100913.51
2018-09-06T11:49:41.588Z,100912.28
2018-09-06T11:50:45.830Z,100913.28
2018-09-06T11:51:50.092Z,100912.74
2018-09-06T11:52:54.317Z,100909.87
2018-09-06T11:53:58.524Z,100907.17
2018-09-06T11:55:02.737Z,100911.55
2018-09-06T11:56:07.464Z,100912.06
2018-09-06T11:57:11.914Z,100916.62
2018-09-06T11:58:16.133Z,100910.05
2018-09-06T11:59:20.421Z,100911.73
2018-09-06T12:00:24.803Z,100909.03
2018-09-06T12:01:29.114Z,100911.39
2018-09-06T12:02:33.309Z,100910.25
2018-09-06T12:03:37.528Z,100914.81
2018-09-06T12:04:41.709Z,100908.06
2018-09-06T12:05:45.941Z,100909.41
2018-09-06T12:06:50.186Z,100912.11
2018-09-06T12:07:54.367Z,100904.19
2018-09-06T12:08:58.603Z,100907.73
2018-09-06T12:10:02.819Z,100905.88
2018-09-06T12:11:07.040Z,100909.41
2018-09-06T12:12:11.359Z,100906.71
2018-09-06T12:13:15.615Z,100901.81
2018-09-06T12:14:19.778Z,100909.74
2018-09-06T12:15:23.964Z,100903.50
2018-09-06T12:16:28.142Z,100906.71
2018-09-06T12:17:32.374Z,100897.59
2018-09-06T12:18:36.590Z,100896.55